createdAt,value
2019-05-26T00:01:10.138Z,73.04
2019-05-26T00:03:38.548Z,72.99
2019-05-26T00:06:06.954Z,72.98
2019-05-26T00:08:35.419Z,72.80
2019-05-26T00:11:03.827Z,72.77
2019-05-26T00:13:32.267Z,73.03
2019-05-26T00:16:00.771Z,73.20
2019-05-26T00:18:33.122Z,73.45
2019-05-26T00:20:59.320Z,74.78
2019-05-26T00:23:27.904Z,75.49
2019-05-26T00:25:56.334Z,75.92
2019-05-26T00:28:24.766Z,76.41
2019-05-26T00:30:53.186Z,76.38
2019-05-26T00:33:21.676Z,76.04
2019-05-26T00:35:50.091Z,75.75
2019-05-26T00:38:18.519Z,75.35
2019-05-26T00:40:47.510Z,75.10
2019-05-26T00:43:15.924Z,74.78
2019-05-26T00:45:44.352Z,74.96
2019-05-26T00:48:12.995Z,75.05
2019-05-26T00:50:41.426Z,74.84
2019-05-26T00:53:09.903Z,74.78
2019-05-26T00:55:38.321Z,74.66
2019-05-26T00:58:06.800Z,74.47
2019-05-26T01:00:43.478Z,74.25
2019-05-26T01:03:12.597Z,73.91
2019-05-26T01:05:41.486Z,74.04
2019-05-26T01:08:10.125Z,73.90
2019-05-26T01:10:38.614Z,73.48
2019-05-26T01:13:07.460Z,73.11
2019-05-26T01:15:36.047Z,72.98
2019-05-26T01:18:05.693Z,72.86
2019-05-26T01:20:34.101Z,72.85
2019-05-26T01:23:02.564Z,72.78
2019-05-26T01:25:30.988Z,72.80
2019-05-26T01:27:59.384Z,72.81
2019-05-26T01:30:38.580Z,73.05
2019-05-26T01:33:07.522Z,73.31
2019-05-26T01:35:39.615Z,74.50
2019-05-26T01:38:22.641Z,75.38
2019-05-26T01:40:43.715Z,75.58
2019-05-26T01:43:12.720Z,76.95
2019-05-26T01:45:41.505Z,77.83
2019-05-26T01:48:10.010Z,77.35
2019-05-26T01:50:38.569Z,77.41
2019-05-26T01:53:07.151Z,77.24
2019-05-26T01:55:35.625Z,77.67
2019-05-26T01:58:04.508Z,77.92
2019-05-26T02:00:33.094Z,77.81
2019-05-26T02:03:01.504Z,77.79
2019-05-26T02:05:29.904Z,77.63
2019-05-26T02:07:58.313Z,77.42
2019-05-26T02:10:26.708Z,77.17
2019-05-26T02:12:55.118Z,76.91
2019-05-26T02:15:24.704Z,76.71
2019-05-26T02:17:53.117Z,76.51
2019-05-26T02:20:21.761Z,76.30
2019-05-26T02:22:50.177Z,76.37
2019-05-26T02:25:19.221Z,76.71
2019-05-26T02:27:47.631Z,76.55
2019-05-26T02:30:16.166Z,76.33
2019-05-26T02:32:44.567Z,76.25
2019-05-26T02:35:14.212Z,76.35
2019-05-26T02:37:42.621Z,76.41
2019-05-26T02:40:13.483Z,76.53
2019-05-26T02:42:41.886Z,76.21
2019-05-26T02:45:12.061Z,76.21
2019-05-26T02:47:40.480Z,76.62
2019-05-26T02:50:09.336Z,76.60
2019-05-26T02:52:37.761Z,76.46
2019-05-26T02:55:07.403Z,76.60
2019-05-26T02:57:35.831Z,76.70
2019-05-26T03:00:08.970Z,77.04
2019-05-26T03:02:37.558Z,77.35
2019-05-26T03:05:11.492Z,77.64
2019-05-26T03:07:43.193Z,77.55
2019-05-26T03:10:15.776Z,78.52
2019-05-26T03:12:46.050Z,78.94
2019-05-26T03:15:14.787Z,79.32
2019-05-26T03:17:43.285Z,79.64
2019-05-26T03:20:13.574Z,79.60
2019-05-26T03:22:42.823Z,79.71
2019-05-26T03:25:12.706Z,80.53
2019-05-26T03:27:41.288Z,80.34
2019-05-26T03:30:10.101Z,79.82
2019-05-26T03:32:38.527Z,79.96
2019-05-26T03:35:08.861Z,79.31
2019-05-26T03:37:37.257Z,79.19
2019-05-26T03:40:08.747Z,79.11
2019-05-26T03:42:37.200Z,79.47
2019-05-26T03:45:08.570Z,79.51
2019-05-26T03:47:37.002Z,80.68
2019-05-26T03:50:06.848Z,80.80
2019-05-26T03:52:35.271Z,80.43
2019-05-26T03:55:04.687Z,80.50
2019-05-26T03:57:33.100Z,80.88
2019-05-26T04:00:01.499Z,80.93
2019-05-26T04:02:30.086Z,81.28
2019-05-26T04:04:58.482Z,80.77
2019-05-26T04:07:26.899Z,80.42
2019-05-26T04:10:04.782Z,80.50
2019-05-26T04:12:25.456Z,80.30
2019-05-26T04:14:53.853Z,80.16
2019-05-26T04:17:22.301Z,80.12
2019-05-26T04:19:50.700Z,80.15
2019-05-26T04:22:19.131Z,79.32
2019-05-26T04:24:47.528Z,79.29
2019-05-26T04:27:15.943Z,78.97
2019-05-26T04:29:44.356Z,78.78
2019-05-26T04:32:12.749Z,78.77
2019-05-26T04:34:41.147Z,79.52
2019-05-26T04:37:09.555Z,78.89
2019-05-26T04:39:37.956Z,78.23
2019-05-26T04:42:06.359Z,78.84
2019-05-26T04:44:34.781Z,78.54
2019-05-26T04:47:03.170Z,78.25
2019-05-26T04:49:31.574Z,78.49
2019-05-26T04:51:59.986Z,78.36
2019-05-26T04:54:28.465Z,78.41
2019-05-26T04:56:56.876Z,78.17
2019-05-26T04:59:25.295Z,78.11
2019-05-26T05:01:53.697Z,78.39
2019-05-26T05:04:22.096Z,77.84
2019-05-26T05:06:50.488Z,78.25
2019-05-26T05:09:18.912Z,77.24
2019-05-26T05:11:47.298Z,77.14
2019-05-26T05:14:15.716Z,76.39
2019-05-26T05:16:44.097Z,76.91
2019-05-26T05:19:12.498Z,76.83
2019-05-26T05:21:40.904Z,76.65
2019-05-26T05:24:09.314Z,75.41
2019-05-26T05:26:37.715Z,75.10
2019-05-26T05:29:06.130Z,74.80
2019-05-26T05:31:34.584Z,73.75
2019-05-26T05:34:03.016Z,73.50
2019-05-26T05:36:31.434Z,73.09
2019-05-26T05:38:59.868Z,73.43
2019-05-26T05:41:28.285Z,73.17
2019-05-26T05:43:56.694Z,72.99
2019-05-26T05:46:25.350Z,72.54
2019-05-26T05:48:53.763Z,72.21
2019-05-26T05:51:22.160Z,72.33
2019-05-26T05:53:50.610Z,72.05
2019-05-26T05:56:19.080Z,71.42
2019-05-26T05:58:47.480Z,70.75
2019-05-26T06:01:15.885Z,70.15
2019-05-26T06:03:44.329Z,69.95
2019-05-26T06:06:12.800Z,69.55
2019-05-26T06:08:41.204Z,68.86
2019-05-26T06:11:16.459Z,68.24
2019-05-26T06:13:39.727Z,67.59
2019-05-26T06:16:08.128Z,66.43
2019-05-26T06:18:36.544Z,64.98
2019-05-26T06:21:05.479Z,64.90
2019-05-26T06:23:36.836Z,64.35
2019-05-26T06:26:04.185Z,64.29
2019-05-26T06:28:32.581Z,64.11
2019-05-26T06:31:00.985Z,62.12
2019-05-26T06:33:29.391Z,60.99
2019-05-26T06:35:57.792Z,60.20
2019-05-26T06:38:26.209Z,58.77
2019-05-26T06:40:57.108Z,57.51
2019-05-26T06:43:24.732Z,55.98
2019-05-26T06:45:53.123Z,54.89
2019-05-26T06:48:21.583Z,54.65
2019-05-26T06:50:50.008Z,50.99
2019-05-26T06:53:18.412Z,49.26
2019-05-26T06:55:46.830Z,45.62
2019-05-26T06:58:15.235Z,44.69
2019-05-26T07:00:44.390Z,44.56
2019-05-26T07:03:12.798Z,45.01
2019-05-26T07:05:41.291Z,44.10
2019-05-26T07:08:09.690Z,43.47
2019-05-26T07:10:38.113Z,39.14
2019-05-26T07:13:06.578Z,38.52
2019-05-26T07:15:34.998Z,37.48
2019-05-26T07:18:03.415Z,36.08
2019-05-26T07:20:31.871Z,36.81
2019-05-26T07:23:00.343Z,38.63
2019-05-26T07:25:28.751Z,39.48
2019-05-26T07:27:57.157Z,38.08
2019-05-26T07:30:25.632Z,36.86
2019-05-26T07:32:54.038Z,34.85
2019-05-26T07:35:22.458Z,36.29
2019-05-26T07:37:50.858Z,37.63
2019-05-26T07:40:19.273Z,38.09
2019-05-26T07:42:47.677Z,41.21
2019-05-26T07:45:16.359Z,40.93
2019-05-26T07:47:44.767Z,39.28
2019-05-26T07:50:13.634Z,41.20
2019-05-26T07:52:42.040Z,40.50
2019-05-26T07:55:10.663Z,40.68
2019-05-26T07:57:39.147Z,42.88
2019-05-26T08:00:08.460Z,42.67
2019-05-26T08:02:36.851Z,42.20
2019-05-26T08:05:07.172Z,43.24
2019-05-26T08:07:35.645Z,45.16
2019-05-26T08:10:05.996Z,46.59
2019-05-26T08:12:34.395Z,46.54
2019-05-26T08:15:02.802Z,46.54
2019-05-26T08:17:31.198Z,47.73
2019-05-26T08:19:59.614Z,49.70
2019-05-26T08:22:28.027Z,50.77
2019-05-26T08:24:56.493Z,51.49
2019-05-26T08:27:24.902Z,49.94
2019-05-26T08:29:53.347Z,49.62
2019-05-26T08:32:21.745Z,50.08
2019-05-26T08:34:50.193Z,51.16
2019-05-26T08:37:18.684Z,51.96
2019-05-26T08:39:48.543Z,51.77
2019-05-26T08:42:26.751Z,51.30
2019-05-26T08:44:47.303Z,52.34
2019-05-26T08:47:15.706Z,52.55
2019-05-26T08:49:44.115Z,52.50
2019-05-26T08:52:12.537Z,52.60
2019-05-26T08:54:40.949Z,52.58
2019-05-26T08:57:09.367Z,51.80
2019-05-26T08:59:37.912Z,51.08
2019-05-26T09:02:06.320Z,51.63
2019-05-26T09:04:34.731Z,50.75
2019-05-26T09:07:03.243Z,50.88
2019-05-26T09:09:31.673Z,51.41
2019-05-26T09:12:00.093Z,50.92
2019-05-26T09:14:28.504Z,49.35
2019-05-26T09:16:56.924Z,50.58
2019-05-26T09:19:25.337Z,49.74
2019-05-26T09:21:53.763Z,51.10
2019-05-26T09:24:22.169Z,51.00
2019-05-26T09:26:50.591Z,50.55
2019-05-26T09:29:19.013Z,49.76
2019-05-26T09:31:47.431Z,48.61
2019-05-26T09:34:15.837Z,48.76
2019-05-26T09:36:44.245Z,47.65
2019-05-26T09:39:12.698Z,48.17
2019-05-26T09:41:41.150Z,48.40
2019-05-26T09:44:09.567Z,49.60
2019-05-26T09:46:37.984Z,49.20
2019-05-26T09:49:06.517Z,49.24
2019-05-26T09:51:34.924Z,50.44
2019-05-26T09:54:03.346Z,49.99
2019-05-26T09:56:31.752Z,50.10
2019-05-26T09:59:00.161Z,50.09
2019-05-26T10:01:28.576Z,48.21
2019-05-26T10:03:56.982Z,46.96
2019-05-26T10:06:25.383Z,45.22
2019-05-26T10:08:53.802Z,45.62
2019-05-26T10:11:22.210Z,45.30
2019-05-26T10:13:50.706Z,44.26
2019-05-26T10:16:19.108Z,44.39
2019-05-26T10:18:47.519Z,45.60
2019-05-26T10:21:15.930Z,43.71
2019-05-26T10:23:44.356Z,44.20
2019-05-26T10:26:12.752Z,42.93
2019-05-26T10:28:41.165Z,44.42
2019-05-26T10:31:09.645Z,42.52
2019-05-26T10:33:38.048Z,43.18
2019-05-26T10:36:06.456Z,43.46
2019-05-26T10:38:34.853Z,43.27
2019-05-26T10:41:03.264Z,44.84
2019-05-26T10:43:45.978Z,44.84
2019-05-26T10:46:01.812Z,45.66
2019-05-26T10:48:30.215Z,45.50
2019-05-26T10:50:58.623Z,45.93
2019-05-26T10:53:27.029Z,46.23
2019-05-26T10:55:55.437Z,46.19
2019-05-26T10:58:23.843Z,46.62
2019-05-26T11:00:52.275Z,46.20
2019-05-26T11:03:20.678Z,45.70
2019-05-26T11:05:49.102Z,45.91
2019-05-26T11:08:17.600Z,45.74
2019-05-26T11:10:46.005Z,45.46
2019-05-26T11:13:14.412Z,44.67
2019-05-26T11:15:42.823Z,43.52
2019-05-26T11:18:11.226Z,44.01
2019-05-26T11:20:39.635Z,44.28
2019-05-26T11:23:08.059Z,44.60
2019-05-26T11:25:36.462Z,44.30
2019-05-26T11:28:05.147Z,44.80
2019-05-26T11:30:33.718Z,43.73
2019-05-26T11:33:02.221Z,44.49
2019-05-26T11:35:30.649Z,44.50
2019-05-26T11:37:59.091Z,44.50
2019-05-26T11:40:27.551Z,45.59
2019-05-26T11:42:55.969Z,42.89
2019-05-26T11:45:24.372Z,43.35
2019-05-26T11:47:52.783Z,43.57
2019-05-26T11:50:21.420Z,43.88
2019-05-26T11:52:49.833Z,42.63
2019-05-26T11:55:18.909Z,43.77
2019-05-26T11:57:47.312Z,44.70
2019-05-26T12:00:17.082Z,42.04
2019-05-26T12:02:46.157Z,41.30
2019-05-26T12:05:17.432Z,40.77
2019-05-26T12:07:45.224Z,41.33
2019-05-26T12:10:14.740Z,40.64
2019-05-26T12:12:43.140Z,41.07
2019-05-26T12:15:12.492Z,39.75
2019-05-26T12:17:40.901Z,40.41
2019-05-26T12:20:10.973Z,41.18
2019-05-26T12:22:39.380Z,40.03
2019-05-26T12:25:08.720Z,40.32
2019-05-26T12:27:37.136Z,41.14
2019-05-26T12:30:07.650Z,41.33
2019-05-26T12:32:36.075Z,41.70
2019-05-26T12:35:07.226Z,40.31
2019-05-26T12:37:35.644Z,39.95
2019-05-26T12:40:05.885Z,40.47
2019-05-26T12:42:34.295Z,40.93
2019-05-26T12:45:02.702Z,41.73
2019-05-26T12:47:31.110Z,41.98
2019-05-26T12:49:59.508Z,42.29
2019-05-26T12:52:27.922Z,40.73
2019-05-26T12:54:56.400Z,40.57
2019-05-26T12:57:24.823Z,40.68
2019-05-26T12:59:53.220Z,40.24
2019-05-26T13:02:21.637Z,40.29
2019-05-26T13:04:50.039Z,41.17
2019-05-26T13:07:18.448Z,40.70
2019-05-26T13:09:46.851Z,41.24
2019-05-26T13:12:15.243Z,41.35
2019-05-26T13:14:43.653Z,41.42
2019-05-26T13:17:12.053Z,41.69
2019-05-26T13:19:40.468Z,41.88
2019-05-26T13:22:08.879Z,42.57
2019-05-26T13:24:37.289Z,42.13
2019-05-26T13:27:06.036Z,41.57
2019-05-26T13:29:34.473Z,42.34
2019-05-26T13:32:02.882Z,41.31
2019-05-26T13:34:31.313Z,41.94
2019-05-26T13:36:59.697Z,41.42
2019-05-26T13:39:28.104Z,41.21
2019-05-26T13:41:56.505Z,40.94
2019-05-26T13:44:24.919Z,41.96
2019-05-26T13:46:53.317Z,41.92
2019-05-26T13:49:21.760Z,42.36
2019-05-26T13:51:50.633Z,41.84
2019-05-26T13:54:19.099Z,41.55
2019-05-26T13:56:47.503Z,41.88
2019-05-26T13:59:15.918Z,42.15
2019-05-26T14:01:44.327Z,41.62
2019-05-26T14:04:12.747Z,42.26
2019-05-26T14:06:41.143Z,41.49
2019-05-26T14:09:10.462Z,41.17
2019-05-26T14:11:38.868Z,41.38
2019-05-26T14:14:07.304Z,41.16
2019-05-26T14:16:37.051Z,41.58
2019-05-26T14:19:05.638Z,41.43
2019-05-26T14:21:34.118Z,41.69
2019-05-26T14:24:02.534Z,41.93
2019-05-26T14:26:30.950Z,43.13
2019-05-26T14:28:59.353Z,44.02
2019-05-26T14:31:27.768Z,43.13
2019-05-26T14:33:56.251Z,43.88
2019-05-26T14:36:24.654Z,43.53
2019-05-26T14:38:53.068Z,42.31
2019-05-26T14:41:21.485Z,43.24
2019-05-26T14:43:49.888Z,43.40
2019-05-26T14:46:18.286Z,43.55
2019-05-26T14:48:46.704Z,44.03
2019-05-26T14:51:15.113Z,44.60
2019-05-26T14:53:43.527Z,43.77
2019-05-26T14:56:11.931Z,44.87
2019-05-26T14:58:40.343Z,44.98
2019-05-26T15:01:08.740Z,44.41
2019-05-26T15:03:37.160Z,45.43
2019-05-26T15:06:06.401Z,45.11
2019-05-26T15:08:34.850Z,45.43
2019-05-26T15:11:03.246Z,45.94
2019-05-26T15:13:31.661Z,46.00
2019-05-26T15:16:09.406Z,46.36
2019-05-26T15:18:30.223Z,46.84
2019-05-26T15:20:58.642Z,46.56
2019-05-26T15:25:54.479Z,46.51
2019-05-26T15:28:22.930Z,45.64
2019-05-26T15:30:51.424Z,46.08
2019-05-26T15:33:19.828Z,46.28
2019-05-26T15:35:48.305Z,46.73
2019-05-26T15:38:16.718Z,45.98
2019-05-26T15:40:45.113Z,46.32
2019-05-26T15:43:13.508Z,46.58
2019-05-26T15:45:41.918Z,46.39
2019-05-26T15:48:10.377Z,45.88
2019-05-26T15:50:38.868Z,46.90
2019-05-26T15:53:07.260Z,46.71
2019-05-26T15:55:39.144Z,47.98
2019-05-26T15:58:05.866Z,47.21
2019-05-26T16:00:34.274Z,46.91
2019-05-26T16:03:02.668Z,47.36
2019-05-26T16:05:31.084Z,46.92
2019-05-26T16:07:59.480Z,47.43
2019-05-26T16:10:27.900Z,45.88
2019-05-26T16:12:56.278Z,46.55
2019-05-26T16:15:24.771Z,46.29
2019-05-26T16:17:53.163Z,46.57
2019-05-26T16:20:21.581Z,47.22
2019-05-26T16:22:50.001Z,47.06
2019-05-26T16:25:18.925Z,47.08
2019-05-26T16:27:47.320Z,47.83
2019-05-26T16:30:16.072Z,47.33
2019-05-26T16:32:44.453Z,47.74
2019-05-26T16:35:12.948Z,47.04
2019-05-26T16:37:41.806Z,48.12
2019-05-26T16:40:10.380Z,48.19
2019-05-26T16:42:38.777Z,48.80
2019-05-26T16:45:08.025Z,48.64
2019-05-26T16:47:36.420Z,48.84
2019-05-26T16:50:06.726Z,49.61
2019-05-26T16:52:35.127Z,49.96
2019-05-26T16:55:03.976Z,50.72
2019-05-26T16:57:32.377Z,50.50
2019-05-26T17:00:00.778Z,51.07
2019-05-26T17:02:29.195Z,50.95
2019-05-26T17:04:57.602Z,51.78
2019-05-26T17:07:26.005Z,51.28
2019-05-26T17:09:54.487Z,51.66
2019-05-26T17:12:22.899Z,51.48
2019-05-26T17:14:51.343Z,51.50
2019-05-26T17:17:19.749Z,51.58
2019-05-26T17:19:48.203Z,51.82
2019-05-26T17:22:16.602Z,52.09
2019-05-26T17:24:45.074Z,51.92
2019-05-26T17:27:13.473Z,52.09
2019-05-26T17:29:41.877Z,52.63
2019-05-26T17:32:10.437Z,52.92
2019-05-26T17:34:38.878Z,52.78
2019-05-26T17:37:07.287Z,52.65
2019-05-26T17:39:35.695Z,53.09
2019-05-26T17:42:04.178Z,53.45
2019-05-26T17:44:32.575Z,53.37
2019-05-26T17:47:00.985Z,53.65
2019-05-26T17:49:29.391Z,54.00
2019-05-26T17:51:57.795Z,53.97
2019-05-26T17:54:26.188Z,54.39
2019-05-26T17:56:54.603Z,54.29
2019-05-26T17:59:23.002Z,54.13
2019-05-26T18:01:51.414Z,54.42
2019-05-26T18:04:19.812Z,54.26
2019-05-26T18:06:48.239Z,54.32
2019-05-26T18:09:16.618Z,54.22
2019-05-26T18:11:45.034Z,54.63
2019-05-26T18:14:13.435Z,54.83
2019-05-26T18:16:41.858Z,55.40
2019-05-26T18:19:10.247Z,55.18
2019-05-26T18:21:38.660Z,55.17
2019-05-26T18:24:07.064Z,55.60
2019-05-26T18:26:35.479Z,55.64
2019-05-26T18:29:03.940Z,55.89
2019-05-26T18:31:32.375Z,55.88
2019-05-26T18:34:00.782Z,56.07
2019-05-26T18:36:29.195Z,56.25
2019-05-26T18:38:57.610Z,56.84
2019-05-26T18:41:26.029Z,56.59
2019-05-26T18:43:54.436Z,56.71
2019-05-26T18:46:22.872Z,56.64
2019-05-26T18:48:51.278Z,57.17
2019-05-26T18:51:19.691Z,59.89
2019-05-26T18:53:48.094Z,61.37
2019-05-26T18:56:16.500Z,64.16
2019-05-26T18:58:44.909Z,67.93
2019-05-26T19:01:13.358Z,69.35
2019-05-26T19:03:41.741Z,70.79
2019-05-26T19:06:10.151Z,71.25
2019-05-26T19:08:38.569Z,72.57
2019-05-26T19:11:06.979Z,73.37
2019-05-26T19:13:35.484Z,73.42
2019-05-26T19:16:03.959Z,73.70
2019-05-26T19:18:32.369Z,73.66
2019-05-26T19:21:00.805Z,73.16
2019-05-26T19:23:29.226Z,73.65
2019-05-26T19:25:57.639Z,73.69
2019-05-26T19:28:26.054Z,73.29
2019-05-26T19:30:54.458Z,72.60
2019-05-26T19:33:22.872Z,72.47
2019-05-26T19:35:51.269Z,72.02
2019-05-26T19:38:19.699Z,71.54
2019-05-26T19:40:48.097Z,71.96
2019-05-26T19:43:16.513Z,71.58
2019-05-26T19:45:44.922Z,71.52
2019-05-26T19:48:13.341Z,70.98
2019-05-26T19:50:41.742Z,70.28
2019-05-26T19:53:10.183Z,69.73
2019-05-26T19:55:38.553Z,69.18
2019-05-26T19:58:07.045Z,69.25
2019-05-26T20:00:35.486Z,68.95
2019-05-26T20:03:04.269Z,69.39
2019-05-26T20:05:32.669Z,69.44
2019-05-26T20:08:01.183Z,70.33
2019-05-26T20:10:29.656Z,70.19
2019-05-26T20:12:58.089Z,69.89
2019-05-26T20:15:26.484Z,70.23
2019-05-26T20:17:55.290Z,70.53
2019-05-26T20:20:23.771Z,70.37
2019-05-26T20:22:52.184Z,70.65
2019-05-26T20:25:20.731Z,71.04
2019-05-26T20:27:49.156Z,71.71
2019-05-26T20:30:21.236Z,72.32
2019-05-26T20:32:48.078Z,72.86
2019-05-26T20:35:16.822Z,73.12
2019-05-26T20:37:45.441Z,73.56
2019-05-26T20:40:14.568Z,72.79
2019-05-26T20:42:42.981Z,72.31
2019-05-26T20:45:11.565Z,72.47
2019-05-26T20:47:39.983Z,72.97
2019-05-26T20:50:08.833Z,74.15
2019-05-26T20:52:37.246Z,73.79
2019-05-26T20:55:09.030Z,75.19
2019-05-26T20:57:37.463Z,74.76
2019-05-26T21:00:08.264Z,75.06
2019-05-26T21:02:36.998Z,75.65
2019-05-26T21:05:07.186Z,75.59
2019-05-26T21:07:35.608Z,75.11
2019-05-26T21:10:07.717Z,74.97
2019-05-26T21:12:36.122Z,74.22
2019-05-26T21:15:06.791Z,74.09
2019-05-26T21:17:35.239Z,73.14
2019-05-26T21:20:07.825Z,72.31
2019-05-26T21:22:36.248Z,72.56
2019-05-26T21:25:05.876Z,72.25
2019-05-26T21:27:34.295Z,71.66
2019-05-26T21:30:02.774Z,70.78
2019-05-26T21:32:31.604Z,70.45
2019-05-26T21:35:00.020Z,70.25
2019-05-26T21:37:28.411Z,69.79
2019-05-26T21:39:56.811Z,68.63
2019-05-26T21:42:25.215Z,68.17
2019-05-26T21:44:53.644Z,68.22
2019-05-26T21:47:22.057Z,67.51
2019-05-26T21:49:50.447Z,67.30
2019-05-26T21:52:18.842Z,67.19
2019-05-26T21:54:47.256Z,67.09
2019-05-26T21:57:15.652Z,66.25
2019-05-26T21:59:44.058Z,66.13
2019-05-26T22:02:12.459Z,65.88
2019-05-26T22:04:40.859Z,66.03
2019-05-26T22:07:09.252Z,65.77
2019-05-26T22:09:37.657Z,65.77
2019-05-26T22:12:06.054Z,66.66
2019-05-26T22:14:34.543Z,67.07
2019-05-26T22:17:02.947Z,67.57
2019-05-26T22:19:31.389Z,67.08
2019-05-26T22:21:59.843Z,66.58
2019-05-26T22:24:28.258Z,66.66
2019-05-26T22:26:56.648Z,66.41
2019-05-26T22:29:25.056Z,65.96
2019-05-26T22:31:53.452Z,65.86
2019-05-26T22:34:21.857Z,65.46
2019-05-26T22:36:50.258Z,64.98
2019-05-26T22:39:18.744Z,64.86
2019-05-26T22:41:47.187Z,64.37
2019-05-26T22:44:15.594Z,64.60
2019-05-26T22:46:44.048Z,64.92
2019-05-26T22:49:12.451Z,64.42
2019-05-26T22:51:40.911Z,64.74
2019-05-26T22:54:09.348Z,64.24
2019-05-26T22:56:37.753Z,64.40
2019-05-26T22:59:06.270Z,64.41
2019-05-26T23:01:34.668Z,64.01
2019-05-26T23:04:03.490Z,64.67
2019-05-26T23:06:31.913Z,64.70
2019-05-26T23:09:00.326Z,64.41
2019-05-26T23:11:28.716Z,64.17
2019-05-26T23:13:57.115Z,64.72
2019-05-26T23:16:25.520Z,64.99
2019-05-26T23:18:53.949Z,65.25
2019-05-26T23:21:22.346Z,66.02
2019-05-26T23:23:50.758Z,67.20
2019-05-26T23:26:19.158Z,68.54
2019-05-26T23:28:47.571Z,70.15
2019-05-26T23:31:15.976Z,71.92
2019-05-26T23:33:44.387Z,72.68
2019-05-26T23:36:12.784Z,73.21
2019-05-26T23:38:41.252Z,74.80
2019-05-26T23:41:09.657Z,76.46
2019-05-26T23:43:38.056Z,78.36
2019-05-26T23:46:06.493Z,80.78
2019-05-26T23:48:34.893Z,81.37
2019-05-26T23:51:03.300Z,81.26
2019-05-26T23:53:31.709Z,82.11
2019-05-26T23:56:00.130Z,82.66
2019-05-26T23:58:28.534Z,83.77
